Skip to main content.

Nearby METAR Reports

 

KJYR - York, Nebraska, USA
Distance from station: NW 27mi, 43km
Updated: Mon, 20-Nov-2017 11:15am CST
Clear
Clear
 Wind from SSW
Wind: SSW 12 mph , 19 km/h, Gust: 21 mph , 33 km/h
Temperature: 52°F , 11°C
Dew Point: 27°F , -3°C
Humidity: 38%
Barometer: 29.68 inHg , 1005.1 hPa
Clouds: Clear
Visibility: 10 miles , 16 km
2017/11/20 17:15 KJYR 201715Z AUTO 21010G18KT 10SM CLR 11/M03 A2968 RMK AO2
KLNK - Lincoln, Nebraska, USA
Distance from station: ENE 27mi, 44km
Updated: Mon, 20-Nov-2017 10:54am CST
Clear
Clear
 Wind from SSW
Wind: SSW 16 mph , 26 km/h
Temperature: 54°F , 12°C
Dew Point: 25°F , -4°C
Humidity: 33%
Barometer: 29.72 inHg , 1006.4 hPa
Clouds: Clear
Visibility: 10 miles , 16 km
2017/11/20 16:54 KLNK 201654Z 21014KT 10SM CLR 12/M04 A2972 RMK AO2 SLP068 T01171044
 
KBIE - Beatrice Municip, Nebraska, USA
Distance from station: SE 36mi, 58km
Updated: Mon, 20-Nov-2017 11:15am CST
Clear
Clear
 Wind from SW
Wind: SW 18 mph , 30 km/h
Temperature: 54°F , 12°C
Dew Point: 27°F , -3°C
Humidity: 35%
Barometer: 29.74 inHg , 1007.1 hPa
Clouds: Clear
Visibility: 10 miles , 16 km
2017/11/20 17:15 KBIE 201715Z AUTO 22016KT 10SM CLR 12/M03 A2974 RMK AO2 T01151030
KHJH - Hebron Muni, Nebraska, USA
Distance from station: SSW 40mi, 64km
Updated: Mon, 20-Nov-2017 11:15am CST
Clear
Clear
 Wind from SW
Wind: SW 15 mph , 24 km/h, Gust: 21 mph , 33 km/h
Temperature: 52°F , 11°C
Dew Point: 23°F , -5°C
Humidity: 32%
Barometer: 29.74 inHg , 1007.1 hPa
Clouds: Clear
Visibility: 10 miles , 16 km
2017/11/20 17:15 KHJH 201715Z AUTO 22013G18KT 10SM CLR 11/M05 A2974 RMK AO2 T01081050
 
KAUH - Aurora, Nebraska, USA
Distance from station: WNW 44mi, 70km
Updated: Mon, 20-Nov-2017 11:15am CST
Clear
Clear
 Wind from SW
Wind: SW 15 mph , 24 km/h
Temperature: 52°F , 11°C
Dew Point: 27°F , -3°C
Humidity: 38%
Barometer: 29.68 inHg , 1005.1 hPa
Clouds: Clear
Visibility: 10 miles , 16 km
2017/11/20 17:15 KAUH 201715Z AUTO 23013KT 10SM CLR 11/M03 A2968 RMK AO2 T01071029
KAHQ - Wahoo, Nebraska, USA
Distance from station: NE 51mi, 82km
Updated: Mon, 20-Nov-2017 11:15am CST
Clear
Clear
 Wind from SSW
Wind: SSW 15 mph , 24 km/h, Gust: 20 mph , 31 km/h
Temperature: 54°F , 12°C
Dew Point: 25°F , -4°C
Humidity: 33%
Barometer: 29.68 inHg , 1005.1 hPa
Clouds: Clear
Visibility: 10 miles , 16 km
2017/11/20 17:15 KAHQ 201715Z AUTO 20013G17KT 10SM CLR 12/M04 A2968 RMK AO2 T01181040
 
KOLU - Columbus Muni, Nebraska, USA
Distance from station: N 55mi, 88km
Updated: Mon, 20-Nov-2017 10:56am CST
Clear
Clear
 Wind from SW
Wind: SW 13 mph , 20 km/h
Temperature: 48°F , 9°C
Wind Chill: 43°F , 6°C
Dew Point: 25°F , -4°C
Humidity: 40%
Barometer: 29.66 inHg , 1004.4 hPa
Clouds: Clear
Visibility: 10 miles , 16 km
2017/11/20 16:56 KOLU 201656Z AUTO 22011KT 10SM CLR 09/M04 A2966 RMK AO2 SLP053 T00941039
KGRI - Grand Island, Nebraska, USA
Distance from station: WNW 61mi, 99km
Updated: Mon, 20-Nov-2017 10:53am CST
Clear
Clear
 Wind from WSW
Wind: WSW 15 mph , 24 km/h
Temperature: 54°F , 12°C
Dew Point: 27°F , -3°C
Humidity: 35%
Barometer: 29.69 inHg , 1005.4 hPa
Clouds: Clear
Visibility: 10 miles , 16 km
2017/11/20 16:53 KGRI 201653Z 25013KT 10SM CLR 12/M03 A2969 RMK AO2 SLP060 T01171033
 
KHSI - Hastings, Nebraska, USA
Distance from station: W 64mi, 103km
Updated: Mon, 20-Nov-2017 10:53am CST
Clear
Clear
 Wind from SSW
Wind: SSW 10 mph , 17 km/h
Temperature: 48°F , 9°C
Wind Chill: 44°F , 7°C
Dew Point: 27°F , -3°C
Humidity: 43%
Barometer: 29.71 inHg , 1006.1 hPa
Clouds: Clear
Visibility: 10 miles , 16 km
2017/11/20 16:53 KHSI 201653Z AUTO 21009KT 10SM CLR 09/M03 A2971 RMK AO2 SLP067 T00941028
KFET - Fremont Muni Arp, Nebraska, USA
Distance from station: NNE 66mi, 106km
Updated: Mon, 20-Nov-2017 11:15am CST
Clear
Clear
 Wind from SSW
Wind: SSW 16 mph , 26 km/h, Gust: 20 mph , 31 km/h
Temperature: 52°F , 11°C
Dew Point: 25°F , -4°C
Humidity: 35%
Barometer: 29.67 inHg , 1004.7 hPa
Clouds: Clear
Visibility: 10 miles , 16 km
2017/11/20 17:15 KFET 201715Z AUTO 20014G17KT 10SM CLR 11/M04 A2967 RMK AO2 T01071038
 
KMLE - Omaha/Millard, Nebraska, USA
Distance from station: NE 69mi, 110km
Updated: Mon, 20-Nov-2017 11:15am CST
Clear
Clear
 Wind from S
Wind: S 10 mph , 17 km/h
Temperature: 55°F , 13°C
Dew Point: 27°F , -3°C
Humidity: 33%
Barometer: 29.69 inHg , 1005.4 hPa
Clouds: Clear
Visibility: 10 miles , 16 km
2017/11/20 17:15 KMLE 201715Z AUTO 18009KT 10SM CLR 13/M03 A2969 RMK AO2 T01261026
KPMV - Plattsmouth Muni, Nebraska, USA
Distance from station: ENE 71mi, 114km
Updated: Mon, 20-Nov-2017 11:15am CST
Clear
Clear
 Wind from SSW
Wind: SSW 22 mph , 35 km/h, Gust: 25 mph , 41 km/h
Temperature: 54°F , 12°C
Dew Point: 27°F , -3°C
Humidity: 35%
Barometer: 29.70 inHg , 1005.8 hPa
Clouds: Clear
Visibility: 10 miles , 16 km
2017/11/20 17:15 KPMV 201715Z AUTO 20019G22KT 10SM CLR 12/M03 A2970 RMK AO2 T01191026
 
KAFK - Nebraska City, Nebraska, USA
Distance from station: E 72mi, 116km
Updated: Mon, 20-Nov-2017 11:15am CST
Clear
Clear
 Wind from SW
Wind: SW 25 mph , 41 km/h, Gust: 30 mph , 48 km/h
Temperature: 55°F , 13°C
Dew Point: 27°F , -3°C
Humidity: 33%
Barometer: 29.72 inHg , 1006.4 hPa
Clouds: Clear
Visibility: 10 miles , 16 km
2017/11/20 17:15 KAFK 201715Z AUTO 22022G26KT 10SM CLR 13/M03 A2972 RMK AO2 T01301026
KOFF - Offutt Afb/Belle, Nebraska, USA
Distance from station: ENE 75mi, 121km
Updated: Mon, 20-Nov-2017 10:56am CST
Clear
Clear
 Wind from S
Wind: S 15 mph , 24 km/h, Gust: 20 mph , 31 km/h
Temperature: 52°F , 11°C
Dew Point: 25°F , -4°C
Humidity: 35%
Barometer: 29.70 inHg , 1005.8 hPa
Clouds: Clear
Visibility: 10 miles , 16 km
2017/11/20 16:56 KOFF 201656Z AUTO 19013G17KT 10SM CLR 11/M04 A2970 RMK AO2 SLP066 T01131040 $
 
KBTA - Blair Muni, Nebraska, USA
Distance from station: NE 78mi, 125km
Updated: Mon, 20-Nov-2017 11:15am CST

 
2017/11/20 17:15 KBTA 201715Z AUTO RMK AO2 PWINO PNO TSNO
KCNK - Concordia, Kansas, USA
Distance from station: SSW 80mi, 129km
Updated: Mon, 20-Nov-2017 10:55am CST
Clear
Clear
 Wind from SSW
Wind: SSW 18 mph , 30 km/h
Temperature: 52°F , 11°C
Dew Point: 23°F , -5°C
Humidity: 32%
Barometer: 29.77 inHg , 1008.1 hPa
Clouds: Clear
2017/11/20 16:55 KCNK 201655Z AUTO 21016KT CLR 11/M05 A2977 RMK AO2 SLP085 T01061050 $
 
KOMA - Omaha/Eppley, Nebraska, USA
Distance from station: NE 82mi, 133km
Updated: Mon, 20-Nov-2017 10:52am CST
Mostly Cloudy
Mostly Cloudy
 Wind from S
Wind: S 14 mph , 22 km/h
Temperature: 52°F , 11°C
Dew Point: 25°F , -4°C
Humidity: 35%
Barometer: 29.69 inHg , 1005.4 hPa
Clouds: Mostly Cloudy
Visibility: 10 miles , 16 km
Cloud details: Mostly Cloudy 25000 ft
2017/11/20 16:52 KOMA 201652Z 19012KT 10SM BKN250 11/M04 A2969 RMK AO2 SLP058 T01111039
KBVN - Albion Muni, Nebraska, USA
Distance from station: NNW 86mi, 138km
Updated: Mon, 20-Nov-2017 11:15am CST
Clear
Clear
 Wind from WSW
Wind: WSW 9 mph , 15 km/h
Temperature: 54°F , 12°C
Dew Point: 25°F , -4°C
Humidity: 33%
Barometer: 29.63 inHg , 1003.4 hPa
Clouds: Clear
Visibility: 10 miles , 16 km
2017/11/20 17:15 KBVN 201715Z AUTO 24008KT 10SM CLR 12/M04 A2963 RMK AO2 T01151044
 
KCBF - Council Bluffs, Iowa, USA
Distance from station: ENE 87mi, 139km
Updated: Mon, 20-Nov-2017 11:15am CST
Clear
Clear
 Wind from SSW
Wind: SSW 23 mph , 37 km/h, Gust: 29 mph , 46 km/h
Temperature: 52°F , 11°C
Dew Point: 27°F , -3°C
Humidity: 38%
Barometer: 29.68 inHg , 1005.1 hPa
Clouds: Clear
Visibility: 10 miles , 16 km
2017/11/20 17:15 KCBF 201715Z AUTO 21020G25KT 10SM CLR 11/M03 A2968 RMK AO2
KOFK - Norfolk, Nebraska, USA
Distance from station: N 92mi, 148km
Updated: Mon, 20-Nov-2017 10:56am CST
Clear
Clear
 Wind from SW
Wind: SW 13 mph , 20 km/h
Temperature: 48°F , 9°C
Wind Chill: 43°F , 6°C
Dew Point: 25°F , -4°C
Humidity: 40%
Barometer: 29.61 inHg , 1002.7 hPa
Clouds: Clear
Visibility: 10 miles , 16 km
2017/11/20 16:56 KOFK 201656Z AUTO 22011KT 10SM CLR 09/M04 A2961 RMK AO2 SLP033 T00891039

Metar display script from Saratoga-Weather.org